Terminal Aerodrome Forecast
Issued by NWS Billings, MT

Home | Current Version | Previous Version | Graphics & Text | Print | Product List | Glossary On
Versions: 1 2 3 4 5 6 7 8 9 10 11 12 13 14 15 16 17 18 19 20 21 22 23 24 25 26 27 28 29 30 31 32 33 34 35 36 37 38 39 40
000
FTUS45 KBYZ 241350 AAB
TAFMLS
TAF AMD
KMLS 241350Z 2414/2512 33011KT 2SM RA BR SCT008 BKN010
      TEMPO 2414/2415 32015G25KT 1SM -RA BR OVC009
     FM241500 34033G45KT 4SM -RA SCT020 BKN030
     FM242200 34033G45KT 4SM -RA VCTS SCT020 BKN030CB
     FM250300 32020G40KT 6SM -RA VCTS SCT020 BKN030CB
     FM250700 30016G23KT P6SM SKC=

USA.gov is the U.S. government's official web portal to all federal, state and local government web resources and services.